13:50
Airports
History
Links
Donate
Help keep this website running!
PayPal
Bitcoin
This page is community maintained. The information is intended for PC simulator navigation or reference.
Always use approved charts for navigation.
SBCI
CAROLINA
CAROLINA (SBCI)
Carolina, Maranhao, Brazil (65980)
(C)
Lat/Lng:7° 19' 13.55" S / 47° 27' 31.2" W
-7.320431 / -47.458667
Elevation:565'ft / 172mMSL
ID / ICAO:SBCI
Runways:1
Longest:11-29
Asphalt 1,803m / 5,914ft
Controlled:Yes
METAR20:00 GMT 2017-11-17
Altimeter: 29.77
Visibility: 6.2 statute miles
Wind: 5 knots (from 120°)
Temp: 28°c / 82°f
Humidity: 74.3%

METAR: SBCI 172000Z 12005KT 9999 FEW020 SCT100 28/23 Q1008

(Powered by phpweather)
Airport Radio Frequencies
Tower: 126.6
Runway 11 / 29
Dimensions:1802.5 x 45.1m 5914' x 148'ft
Surface:Asphalt
Edge Lights:Low intensity
Runway 11 [A]Runway 29 [B]
Heading:085°TH 265°TH
Lat:
Lng:
7° 19' 15.8"S
47° 28' 0.5"W
7° 19' 11.3"S
47° 27' 1.9"W
User Notes and Comments
7° 19' 13.55" S / 47° 27' 31.2" W
Distance To
Airport ID:
Nearby Airports
(C) Araguaina 54.0 NM
SWGN W 276°
(C) Riachao 56.6 NM
SNRX E 92°
4 Fazenda Santa Monica 78.1 NM
SNVQ NW 314°
(U) FAZENDA BELA VISTA 80.1 NM
SB29 WNW 292°
(U) Vista Alegre 80.1 NM
SJOT WNW 292°
4 Fazenda Alvorada 89.4 NM
SNHC W 270°
(U) Fazenda Novo Horizonte 90.5 NM
SSUI W 279°
VFR Chart
Flight Planning at SkyVector.com